sensor_id;sensor_type;location;lat;lon;timestamp;P1;durP1;ratioP1;P2;durP2;ratioP2
18190;SDS011;47004;51.366;12.348;2023-06-19T00:00:50;6.57;;;5.30;;
18190;SDS011;47004;51.366;12.348;2023-06-19T00:02:52;6.80;;;5.47;;
18190;SDS011;47004;51.366;12.348;2023-06-19T00:04:55;6.60;;;5.50;;
18190;SDS011;47004;51.366;12.348;2023-06-19T00:06:58;9.50;;;5.50;;
18190;SDS011;47004;51.366;12.348;2023-06-19T00:09:01;8.83;;;5.63;;
18190;SDS011;47004;51.366;12.348;2023-06-19T00:11:03;6.97;;;5.53;;
18190;SDS011;47004;51.366;12.348;2023-06-19T00:13:05;6.83;;;5.73;;
18190;SDS011;47004;51.366;12.348;2023-06-19T00:15:07;5.93;;;5.20;;
18190;SDS011;47004;51.366;12.348;2023-06-19T00:17:09;7.87;;;5.73;;
18190;SDS011;47004;51.366;12.348;2023-06-19T00:19:12;7.23;;;5.70;;
18190;SDS011;47004;51.366;12.348;2023-06-19T00:21:15;8.40;;;5.80;;
18190;SDS011;47004;51.366;12.348;2023-06-19T00:23:17;8.57;;;5.73;;
18190;SDS011;47004;51.366;12.348;2023-06-19T00:25:19;8.10;;;5.80;;
18190;SDS011;47004;51.366;12.348;2023-06-19T00:27:21;9.60;;;5.70;;
18190;SDS011;47004;51.366;12.348;2023-06-19T00:29:24;7.07;;;5.63;;
18190;SDS011;47004;51.366;12.348;2023-06-19T00:31:28;7.47;;;5.63;;
18190;SDS011;47004;51.366;12.348;2023-06-19T00:33:30;7.20;;;5.37;;
18190;SDS011;47004;51.366;12.348;2023-06-19T00:35:32;6.80;;;5.47;;
18190;SDS011;47004;51.366;12.348;2023-06-19T00:37:35;7.00;;;5.63;;
18190;SDS011;47004;51.366;12.348;2023-06-19T00:39:37;6.43;;;5.07;;
18190;SDS011;47004;51.366;12.348;2023-06-19T00:41:39;6.30;;;5.53;;
18190;SDS011;47004;51.366;12.348;2023-06-19T00:43:43;8.10;;;5.63;;
18190;SDS011;47004;51.366;12.348;2023-06-19T00:45:45;7.10;;;5.53;;
18190;SDS011;47004;51.366;12.348;2023-06-19T00:47:47;9.53;;;6.13;;
18190;SDS011;47004;51.366;12.348;2023-06-19T00:49:49;7.43;;;5.60;;
18190;SDS011;47004;51.366;12.348;2023-06-19T00:51:51;6.90;;;5.50;;
18190;SDS011;47004;51.366;12.348;2023-06-19T00:53:55;7.00;;;5.30;;
18190;SDS011;47004;51.366;12.348;2023-06-19T00:56:00;6.63;;;5.70;;
18190;SDS011;47004;51.366;12.348;2023-06-19T00:58:03;7.07;;;5.80;;
18190;SDS011;47004;51.366;12.348;2023-06-19T01:00:05;9.03;;;6.07;;
18190;SDS011;47004;51.366;12.348;2023-06-19T01:02:08;7.23;;;5.47;;
18190;SDS011;47004;51.366;12.348;2023-06-19T01:04:11;7.30;;;5.30;;
18190;SDS011;47004;51.366;12.348;2023-06-19T01:06:13;7.93;;;5.50;;
18190;SDS011;47004;51.366;12.348;2023-06-19T01:08:26;7.13;;;5.90;;
18190;SDS011;47004;51.366;12.348;2023-06-19T01:10:51;9.20;;;6.27;;
18190;SDS011;47004;51.366;12.348;2023-06-19T01:12:56;8.17;;;5.60;;
18190;SDS011;47004;51.366;12.348;2023-06-19T01:15:02;7.43;;;5.80;;
18190;SDS011;47004;51.366;12.348;2023-06-19T01:17:06;7.03;;;5.73;;
18190;SDS011;47004;51.366;12.348;2023-06-19T01:19:09;7.17;;;5.70;;
18190;SDS011;47004;51.366;12.348;2023-06-19T01:21:16;7.10;;;5.67;;
18190;SDS011;47004;51.366;12.348;2023-06-19T01:23:20;8.10;;;5.30;;
18190;SDS011;47004;51.366;12.348;2023-06-19T01:25:22;8.33;;;5.53;;
18190;SDS011;47004;51.366;12.348;2023-06-19T01:27:25;6.70;;;5.53;;
18190;SDS011;47004;51.366;12.348;2023-06-19T01:29:29;6.00;;;4.90;;
18190;SDS011;47004;51.366;12.348;2023-06-19T01:31:34;8.33;;;5.50;;
18190;SDS011;47004;51.366;12.348;2023-06-19T01:33:39;6.73;;;5.60;;
18190;SDS011;47004;51.366;12.348;2023-06-19T01:35:43;6.80;;;5.43;;
18190;SDS011;47004;51.366;12.348;2023-06-19T01:37:47;6.57;;;5.60;;
18190;SDS011;47004;51.366;12.348;2023-06-19T01:39:53;7.10;;;5.90;;
18190;SDS011;47004;51.366;12.348;2023-06-19T01:41:56;7.60;;;5.70;;
18190;SDS011;47004;51.366;12.348;2023-06-19T01:43:59;6.13;;;5.23;;
18190;SDS011;47004;51.366;12.348;2023-06-19T01:46:02;6.37;;;5.30;;
18190;SDS011;47004;51.366;12.348;2023-06-19T01:48:04;7.97;;;5.90;;
18190;SDS011;47004;51.366;12.348;2023-06-19T01:50:09;8.17;;;5.70;;
18190;SDS011;47004;51.366;12.348;2023-06-19T01:52:12;7.23;;;5.60;;
18190;SDS011;47004;51.366;12.348;2023-06-19T01:54:14;7.90;;;5.50;;
18190;SDS011;47004;51.366;12.348;2023-06-19T01:56:17;8.83;;;6.23;;
18190;SDS011;47004;51.366;12.348;2023-06-19T01:58:19;7.43;;;5.80;;
18190;SDS011;47004;51.366;12.348;2023-06-19T02:00:21;7.50;;;5.83;;
18190;SDS011;47004;51.366;12.348;2023-06-19T02:02:23;7.97;;;6.00;;
18190;SDS011;47004;51.366;12.348;2023-06-19T02:04:26;6.83;;;5.90;;
18190;SDS011;47004;51.366;12.348;2023-06-19T02:06:26;7.70;;;5.97;;
18190;SDS011;47004;51.366;12.348;2023-06-19T02:08:30;7.87;;;5.70;;
18190;SDS011;47004;51.366;12.348;2023-06-19T02:10:32;8.37;;;6.23;;
18190;SDS011;47004;51.366;12.348;2023-06-19T02:12:35;6.93;;;5.63;;
18190;SDS011;47004;51.366;12.348;2023-06-19T02:14:37;7.57;;;5.87;;
18190;SDS011;47004;51.366;12.348;2023-06-19T02:16:39;7.37;;;6.07;;
18190;SDS011;47004;51.366;12.348;2023-06-19T02:18:43;7.50;;;5.80;;
18190;SDS011;47004;51.366;12.348;2023-06-19T02:20:45;8.50;;;6.20;;
18190;SDS011;47004;51.366;12.348;2023-06-19T02:22:47;9.73;;;6.13;;
18190;SDS011;47004;51.366;12.348;2023-06-19T02:24:49;8.67;;;6.40;;
18190;SDS011;47004;51.366;12.348;2023-06-19T02:26:51;8.03;;;6.23;;
18190;SDS011;47004;51.366;12.348;2023-06-19T02:28:54;9.27;;;5.90;;
18190;SDS011;47004;51.366;12.348;2023-06-19T02:30:56;8.40;;;5.50;;
18190;SDS011;47004;51.366;12.348;2023-06-19T02:32:58;7.97;;;6.17;;
18190;SDS011;47004;51.366;12.348;2023-06-19T02:35:00;7.93;;;5.63;;
18190;SDS011;47004;51.366;12.348;2023-06-19T02:37:04;9.40;;;6.57;;
18190;SDS011;47004;51.366;12.348;2023-06-19T02:39:06;8.33;;;6.20;;
18190;SDS011;47004;51.366;12.348;2023-06-19T02:41:09;7.83;;;6.37;;
18190;SDS011;47004;51.366;12.348;2023-06-19T02:43:14;8.43;;;6.20;;
18190;SDS011;47004;51.366;12.348;2023-06-19T02:45:18;10.93;;;6.20;;
18190;SDS011;47004;51.366;12.348;2023-06-19T02:47:20;8.30;;;6.27;;
18190;SDS011;47004;51.366;12.348;2023-06-19T02:49:22;7.57;;;6.40;;
18190;SDS011;47004;51.366;12.348;2023-06-19T02:51:23;9.60;;;6.20;;
18190;SDS011;47004;51.366;12.348;2023-06-19T02:53:25;7.93;;;6.00;;
18190;SDS011;47004;51.366;12.348;2023-06-19T02:55:27;8.37;;;6.03;;
18190;SDS011;47004;51.366;12.348;2023-06-19T02:57:29;7.73;;;6.03;;
18190;SDS011;47004;51.366;12.348;2023-06-19T02:59:31;9.53;;;6.50;;
18190;SDS011;47004;51.366;12.348;2023-06-19T03:01:34;9.53;;;6.50;;
18190;SDS011;47004;51.366;12.348;2023-06-19T03:03:36;8.23;;;5.90;;
18190;SDS011;47004;51.366;12.348;2023-06-19T03:05:38;7.67;;;6.03;;
18190;SDS011;47004;51.366;12.348;2023-06-19T03:07:40;9.03;;;6.13;;
18190;SDS011;47004;51.366;12.348;2023-06-19T03:09:42;9.03;;;6.60;;
18190;SDS011;47004;51.366;12.348;2023-06-19T03:11:44;8.43;;;6.00;;
18190;SDS011;47004;51.366;12.348;2023-06-19T03:13:46;8.17;;;6.50;;
18190;SDS011;47004;51.366;12.348;2023-06-19T03:15:49;7.33;;;6.13;;
18190;SDS011;47004;51.366;12.348;2023-06-19T03:17:53;9.37;;;6.33;;
18190;SDS011;47004;51.366;12.348;2023-06-19T03:19:55;7.07;;;5.80;;
18190;SDS011;47004;51.366;12.348;2023-06-19T03:21:57;6.70;;;5.67;;
18190;SDS011;47004;51.366;12.348;2023-06-19T03:23:59;8.17;;;5.90;;
18190;SDS011;47004;51.366;12.348;2023-06-19T03:26:01;9.40;;;6.10;;
18190;SDS011;47004;51.366;12.348;2023-06-19T03:28:03;7.73;;;5.90;;
18190;SDS011;47004;51.366;12.348;2023-06-19T03:30:08;7.90;;;6.07;;
18190;SDS011;47004;51.366;12.348;2023-06-19T03:32:12;7.93;;;5.60;;
18190;SDS011;47004;51.366;12.348;2023-06-19T03:34:16;7.70;;;5.80;;
18190;SDS011;47004;51.366;12.348;2023-06-19T03:36:18;9.57;;;6.10;;
18190;SDS011;47004;51.366;12.348;2023-06-19T03:38:20;9.07;;;6.57;;
18190;SDS011;47004;51.366;12.348;2023-06-19T03:40:22;9.93;;;6.27;;
18190;SDS011;47004;51.366;12.348;2023-06-19T03:42:23;11.23;;;6.50;;
18190;SDS011;47004;51.366;12.348;2023-06-19T03:44:25;9.03;;;5.90;;
18190;SDS011;47004;51.366;12.348;2023-06-19T03:46:27;10.00;;;6.40;;
18190;SDS011;47004;51.366;12.348;2023-06-19T03:48:29;9.40;;;6.13;;
18190;SDS011;47004;51.366;12.348;2023-06-19T03:50:32;9.27;;;6.27;;
18190;SDS011;47004;51.366;12.348;2023-06-19T03:52:34;10.60;;;6.97;;
18190;SDS011;47004;51.366;12.348;2023-06-19T03:54:36;7.83;;;5.80;;
18190;SDS011;47004;51.366;12.348;2023-06-19T03:56:41;8.00;;;6.30;;
18190;SDS011;47004;51.366;12.348;2023-06-19T03:58:43;8.17;;;5.87;;
18190;SDS011;47004;51.366;12.348;2023-06-19T04:00:45;7.97;;;6.33;;
18190;SDS011;47004;51.366;12.348;2023-06-19T04:02:47;7.00;;;5.80;;
18190;SDS011;47004;51.366;12.348;2023-06-19T04:04:48;8.23;;;6.00;;
18190;SDS011;47004;51.366;12.348;2023-06-19T04:06:52;7.67;;;6.00;;
18190;SDS011;47004;51.366;12.348;2023-06-19T04:08:53;9.33;;;6.67;;
18190;SDS011;47004;51.366;12.348;2023-06-19T04:10:55;8.77;;;6.37;;
18190;SDS011;47004;51.366;12.348;2023-06-19T04:12:57;7.90;;;5.97;;
18190;SDS011;47004;51.366;12.348;2023-06-19T04:14:59;8.50;;;6.50;;
18190;SDS011;47004;51.366;12.348;2023-06-19T04:17:01;7.90;;;6.00;;
18190;SDS011;47004;51.366;12.348;2023-06-19T04:19:03;8.87;;;6.17;;
18190;SDS011;47004;51.366;12.348;2023-06-19T04:21:05;7.10;;;5.63;;
18190;SDS011;47004;51.366;12.348;2023-06-19T04:23:08;7.90;;;5.90;;
18190;SDS011;47004;51.366;12.348;2023-06-19T04:25:10;9.27;;;7.43;;
18190;SDS011;47004;51.366;12.348;2023-06-19T04:27:12;10.33;;;7.50;;
18190;SDS011;47004;51.366;12.348;2023-06-19T04:29:14;9.03;;;6.80;;
18190;SDS011;47004;51.366;12.348;2023-06-19T04:31:17;8.40;;;6.23;;
18190;SDS011;47004;51.366;12.348;2023-06-19T04:33:19;7.70;;;6.37;;
18190;SDS011;47004;51.366;12.348;2023-06-19T04:35:21;7.80;;;6.33;;
18190;SDS011;47004;51.366;12.348;2023-06-19T04:37:23;8.60;;;6.33;;
18190;SDS011;47004;51.366;12.348;2023-06-19T04:39:26;7.97;;;5.90;;
18190;SDS011;47004;51.366;12.348;2023-06-19T04:41:28;11.20;;;6.90;;
18190;SDS011;47004;51.366;12.348;2023-06-19T04:43:30;10.37;;;7.37;;
18190;SDS011;47004;51.366;12.348;2023-06-19T04:45:33;9.27;;;7.37;;
18190;SDS011;47004;51.366;12.348;2023-06-19T04:47:35;10.33;;;7.00;;
18190;SDS011;47004;51.366;12.348;2023-06-19T04:49:38;10.47;;;6.60;;
18190;SDS011;47004;51.366;12.348;2023-06-19T04:51:40;9.97;;;6.40;;
18190;SDS011;47004;51.366;12.348;2023-06-19T04:53:42;9.53;;;6.40;;
18190;SDS011;47004;51.366;12.348;2023-06-19T04:55:45;8.43;;;6.47;;
18190;SDS011;47004;51.366;12.348;2023-06-19T04:57:47;8.40;;;6.43;;
18190;SDS011;47004;51.366;12.348;2023-06-19T04:59:49;8.13;;;5.90;;
18190;SDS011;47004;51.366;12.348;2023-06-19T05:01:51;8.23;;;6.27;;
18190;SDS011;47004;51.366;12.348;2023-06-19T05:03:54;8.00;;;6.13;;
18190;SDS011;47004;51.366;12.348;2023-06-19T05:05:56;7.13;;;6.03;;
18190;SDS011;47004;51.366;12.348;2023-06-19T05:07:59;7.63;;;6.33;;
18190;SDS011;47004;51.366;12.348;2023-06-19T05:10:01;7.43;;;5.83;;
18190;SDS011;47004;51.366;12.348;2023-06-19T05:12:05;8.90;;;6.13;;
18190;SDS011;47004;51.366;12.348;2023-06-19T05:14:07;9.63;;;6.30;;
18190;SDS011;47004;51.366;12.348;2023-06-19T05:16:09;7.93;;;5.80;;
18190;SDS011;47004;51.366;12.348;2023-06-19T05:18:11;9.10;;;6.87;;
18190;SDS011;47004;51.366;12.348;2023-06-19T05:20:13;7.63;;;6.20;;
18190;SDS011;47004;51.366;12.348;2023-06-19T05:22:16;8.47;;;6.50;;
18190;SDS011;47004;51.366;12.348;2023-06-19T05:24:18;8.80;;;6.80;;
18190;SDS011;47004;51.366;12.348;2023-06-19T05:26:20;7.77;;;6.37;;
18190;SDS011;47004;51.366;12.348;2023-06-19T05:28:24;9.20;;;6.53;;
18190;SDS011;47004;51.366;12.348;2023-06-19T05:30:26;8.23;;;6.50;;
18190;SDS011;47004;51.366;12.348;2023-06-19T05:32:28;11.63;;;7.10;;
18190;SDS011;47004;51.366;12.348;2023-06-19T05:34:29;7.57;;;6.30;;
18190;SDS011;47004;51.366;12.348;2023-06-19T05:36:31;8.53;;;6.57;;
18190;SDS011;47004;51.366;12.348;2023-06-19T05:38:33;8.20;;;6.87;;
18190;SDS011;47004;51.366;12.348;2023-06-19T05:40:35;8.20;;;6.23;;
18190;SDS011;47004;51.366;12.348;2023-06-19T05:42:37;7.97;;;6.17;;
18190;SDS011;47004;51.366;12.348;2023-06-19T05:44:41;8.70;;;6.77;;
18190;SDS011;47004;51.366;12.348;2023-06-19T05:46:43;9.20;;;6.13;;
18190;SDS011;47004;51.366;12.348;2023-06-19T05:48:44;7.77;;;6.37;;
18190;SDS011;47004;51.366;12.348;2023-06-19T05:50:46;9.13;;;6.57;;
18190;SDS011;47004;51.366;12.348;2023-06-19T05:52:48;8.03;;;6.47;;
18190;SDS011;47004;51.366;12.348;2023-06-19T05:54:50;9.07;;;6.47;;
18190;SDS011;47004;51.366;12.348;2023-06-19T05:56:53;9.37;;;7.00;;
18190;SDS011;47004;51.366;12.348;2023-06-19T05:58:55;10.00;;;6.90;;
18190;SDS011;47004;51.366;12.348;2023-06-19T06:00:58;8.03;;;6.33;;
18190;SDS011;47004;51.366;12.348;2023-06-19T06:03:00;9.53;;;7.03;;
18190;SDS011;47004;51.366;12.348;2023-06-19T06:05:02;9.23;;;6.90;;
18190;SDS011;47004;51.366;12.348;2023-06-19T06:07:05;10.03;;;6.60;;
18190;SDS011;47004;51.366;12.348;2023-06-19T06:09:08;11.70;;;6.83;;
18190;SDS011;47004;51.366;12.348;2023-06-19T06:11:11;10.50;;;7.10;;
18190;SDS011;47004;51.366;12.348;2023-06-19T06:13:12;10.00;;;7.00;;
18190;SDS011;47004;51.366;12.348;2023-06-19T06:15:14;9.87;;;7.67;;
18190;SDS011;47004;51.366;12.348;2023-06-19T06:17:18;10.10;;;7.03;;
18190;SDS011;47004;51.366;12.348;2023-06-19T06:19:21;11.23;;;8.10;;
18190;SDS011;47004;51.366;12.348;2023-06-19T06:21:23;10.40;;;7.10;;
18190;SDS011;47004;51.366;12.348;2023-06-19T06:23:25;9.70;;;7.37;;
18190;SDS011;47004;51.366;12.348;2023-06-19T06:25:27;9.60;;;7.30;;
18190;SDS011;47004;51.366;12.348;2023-06-19T06:27:29;8.57;;;6.67;;
18190;SDS011;47004;51.366;12.348;2023-06-19T06:29:31;10.93;;;6.80;;
18190;SDS011;47004;51.366;12.348;2023-06-19T06:31:33;8.93;;;6.97;;
18190;SDS011;47004;51.366;12.348;2023-06-19T06:33:37;9.33;;;6.80;;
18190;SDS011;47004;51.366;12.348;2023-06-19T06:35:38;10.33;;;7.70;;
18190;SDS011;47004;51.366;12.348;2023-06-19T06:37:40;13.37;;;8.10;;
18190;SDS011;47004;51.366;12.348;2023-06-19T06:39:44;11.20;;;7.87;;
18190;SDS011;47004;51.366;12.348;2023-06-19T06:41:45;15.13;;;8.77;;
18190;SDS011;47004;51.366;12.348;2023-06-19T06:43:47;13.50;;;8.20;;
18190;SDS011;47004;51.366;12.348;2023-06-19T06:45:49;13.87;;;8.33;;
18190;SDS011;47004;51.366;12.348;2023-06-19T06:47:51;16.27;;;8.83;;
18190;SDS011;47004;51.366;12.348;2023-06-19T06:49:54;15.30;;;9.27;;
18190;SDS011;47004;51.366;12.348;2023-06-19T06:51:56;11.83;;;8.43;;
18190;SDS011;47004;51.366;12.348;2023-06-19T06:53:58;13.00;;;8.30;;
18190;SDS011;47004;51.366;12.348;2023-06-19T06:56:00;12.80;;;8.17;;
18190;SDS011;47004;51.366;12.348;2023-06-19T06:58:03;12.90;;;8.77;;
18190;SDS011;47004;51.366;12.348;2023-06-19T07:00:05;10.60;;;8.10;;
18190;SDS011;47004;51.366;12.348;2023-06-19T07:02:11;15.83;;;9.37;;
18190;SDS011;47004;51.366;12.348;2023-06-19T07:04:13;12.67;;;8.50;;
18190;SDS011;47004;51.366;12.348;2023-06-19T07:06:16;11.67;;;8.40;;
18190;SDS011;47004;51.366;12.348;2023-06-19T07:08:18;10.40;;;7.77;;
18190;SDS011;47004;51.366;12.348;2023-06-19T07:10:20;11.40;;;8.70;;
18190;SDS011;47004;51.366;12.348;2023-06-19T07:12:21;10.93;;;8.00;;
18190;SDS011;47004;51.366;12.348;2023-06-19T07:14:23;10.20;;;7.97;;
18190;SDS011;47004;51.366;12.348;2023-06-19T07:16:25;12.43;;;8.77;;
18190;SDS011;47004;51.366;12.348;2023-06-19T07:18:27;10.47;;;7.33;;
18190;SDS011;47004;51.366;12.348;2023-06-19T07:20:29;9.80;;;8.10;;
18190;SDS011;47004;51.366;12.348;2023-06-19T07:22:32;9.10;;;7.80;;
18190;SDS011;47004;51.366;12.348;2023-06-19T07:24:34;9.37;;;7.20;;
18190;SDS011;47004;51.366;12.348;2023-06-19T07:26:36;9.93;;;7.80;;
18190;SDS011;47004;51.366;12.348;2023-06-19T07:28:38;9.33;;;7.47;;
18190;SDS011;47004;51.366;12.348;2023-06-19T07:30:40;10.10;;;7.87;;
18190;SDS011;47004;51.366;12.348;2023-06-19T07:32:42;10.93;;;7.63;;
18190;SDS011;47004;51.366;12.348;2023-06-19T07:34:43;12.13;;;7.83;;
18190;SDS011;47004;51.366;12.348;2023-06-19T07:36:45;10.57;;;8.00;;
18190;SDS011;47004;51.366;12.348;2023-06-19T07:38:48;10.50;;;7.73;;
18190;SDS011;47004;51.366;12.348;2023-06-19T07:40:50;11.53;;;7.53;;
18190;SDS011;47004;51.366;12.348;2023-06-19T07:42:52;9.20;;;7.30;;
18190;SDS011;47004;51.366;12.348;2023-06-19T07:44:54;10.17;;;7.63;;
18190;SDS011;47004;51.366;12.348;2023-06-19T07:46:56;10.07;;;7.80;;
18190;SDS011;47004;51.366;12.348;2023-06-19T07:48:58;9.83;;;7.93;;
18190;SDS011;47004;51.366;12.348;2023-06-19T07:51:00;10.27;;;8.00;;
18190;SDS011;47004;51.366;12.348;2023-06-19T07:53:01;10.97;;;7.87;;
18190;SDS011;47004;51.366;12.348;2023-06-19T07:55:05;10.40;;;7.53;;
18190;SDS011;47004;51.366;12.348;2023-06-19T07:57:07;8.93;;;7.30;;
18190;SDS011;47004;51.366;12.348;2023-06-19T07:59:09;8.63;;;7.17;;
18190;SDS011;47004;51.366;12.348;2023-06-19T08:01:11;10.40;;;7.77;;
18190;SDS011;47004;51.366;12.348;2023-06-19T08:03:13;10.57;;;8.03;;
18190;SDS011;47004;51.366;12.348;2023-06-19T08:05:15;9.50;;;7.37;;
18190;SDS011;47004;51.366;12.348;2023-06-19T08:07:17;9.87;;;7.40;;
18190;SDS011;47004;51.366;12.348;2023-06-19T08:09:19;9.37;;;7.17;;
18190;SDS011;47004;51.366;12.348;2023-06-19T08:11:22;10.67;;;7.50;;
18190;SDS011;47004;51.366;12.348;2023-06-19T08:13:24;8.93;;;7.13;;
18190;SDS011;47004;51.366;12.348;2023-06-19T08:15:26;10.33;;;7.63;;
18190;SDS011;47004;51.366;12.348;2023-06-19T08:17:31;9.87;;;7.07;;
18190;SDS011;47004;51.366;12.348;2023-06-19T08:19:33;8.67;;;6.90;;
18190;SDS011;47004;51.366;12.348;2023-06-19T08:21:34;7.83;;;7.00;;
18190;SDS011;47004;51.366;12.348;2023-06-19T08:23:36;10.30;;;6.90;;
18190;SDS011;47004;51.366;12.348;2023-06-19T08:25:39;9.30;;;7.30;;
18190;SDS011;47004;51.366;12.348;2023-06-19T08:27:42;11.10;;;7.80;;
18190;SDS011;47004;51.366;12.348;2023-06-19T08:29:45;9.13;;;6.67;;
18190;SDS011;47004;51.366;12.348;2023-06-19T08:31:47;9.07;;;7.00;;
18190;SDS011;47004;51.366;12.348;2023-06-19T08:33:51;8.90;;;6.90;;
18190;SDS011;47004;51.366;12.348;2023-06-19T08:35:53;11.40;;;7.50;;
18190;SDS011;47004;51.366;12.348;2023-06-19T08:37:55;14.97;;;8.10;;
18190;SDS011;47004;51.366;12.348;2023-06-19T08:39:57;11.47;;;8.13;;
18190;SDS011;47004;51.366;12.348;2023-06-19T08:41:59;9.90;;;8.27;;
18190;SDS011;47004;51.366;12.348;2023-06-19T08:44:03;12.40;;;8.20;;
18190;SDS011;47004;51.366;12.348;2023-06-19T08:46:07;9.73;;;7.33;;
18190;SDS011;47004;51.366;12.348;2023-06-19T08:48:12;9.40;;;7.57;;
18190;SDS011;47004;51.366;12.348;2023-06-19T08:50:15;10.17;;;7.20;;
18190;SDS011;47004;51.366;12.348;2023-06-19T08:52:17;7.87;;;6.50;;
18190;SDS011;47004;51.366;12.348;2023-06-19T08:54:19;9.90;;;6.93;;
18190;SDS011;47004;51.366;12.348;2023-06-19T08:56:21;9.57;;;6.77;;
18190;SDS011;47004;51.366;12.348;2023-06-19T08:58:23;9.30;;;6.87;;
18190;SDS011;47004;51.366;12.348;2023-06-19T09:00:27;9.43;;;6.57;;
18190;SDS011;47004;51.366;12.348;2023-06-19T09:02:37;9.40;;;6.60;;
18190;SDS011;47004;51.366;12.348;2023-06-19T09:04:40;7.77;;;6.40;;
18190;SDS011;47004;51.366;12.348;2023-06-19T09:06:46;8.13;;;6.40;;
18190;SDS011;47004;51.366;12.348;2023-06-19T09:08:57;10.20;;;6.50;;
18190;SDS011;47004;51.366;12.348;2023-06-19T09:11:00;8.73;;;6.63;;
18190;SDS011;47004;51.366;12.348;2023-06-19T09:13:03;8.67;;;6.47;;
18190;SDS011;47004;51.366;12.348;2023-06-19T09:15:11;9.53;;;6.73;;
18190;SDS011;47004;51.366;12.348;2023-06-19T09:17:17;9.57;;;6.73;;
18190;SDS011;47004;51.366;12.348;2023-06-19T09:19:20;8.40;;;6.43;;
18190;SDS011;47004;51.366;12.348;2023-06-19T09:21:22;12.87;;;6.30;;
18190;SDS011;47004;51.366;12.348;2023-06-19T09:23:25;8.30;;;6.43;;
18190;SDS011;47004;51.366;12.348;2023-06-19T09:25:27;11.20;;;6.43;;
18190;SDS011;47004;51.366;12.348;2023-06-19T09:27:31;7.00;;;6.00;;
18190;SDS011;47004;51.366;12.348;2023-06-19T09:29:35;9.50;;;6.20;;
18190;SDS011;47004;51.366;12.348;2023-06-19T09:31:39;10.03;;;6.00;;
18190;SDS011;47004;51.366;12.348;2023-06-19T09:33:43;6.87;;;5.87;;
18190;SDS011;47004;51.366;12.348;2023-06-19T09:35:45;8.53;;;5.67;;
18190;SDS011;47004;51.366;12.348;2023-06-19T09:37:48;8.27;;;6.23;;
18190;SDS011;47004;51.366;12.348;2023-06-19T09:39:52;9.17;;;6.13;;
18190;SDS011;47004;51.366;12.348;2023-06-19T09:41:55;8.87;;;7.03;;
18190;SDS011;47004;51.366;12.348;2023-06-19T09:43:59;11.27;;;7.03;;
18190;SDS011;47004;51.366;12.348;2023-06-19T09:46:04;9.03;;;6.67;;
18190;SDS011;47004;51.366;12.348;2023-06-19T09:48:07;9.03;;;6.20;;
18190;SDS011;47004;51.366;12.348;2023-06-19T09:50:16;7.90;;;5.90;;
18190;SDS011;47004;51.366;12.348;2023-06-19T09:52:18;8.27;;;5.87;;
18190;SDS011;47004;51.366;12.348;2023-06-19T09:54:23;9.40;;;6.23;;
18190;SDS011;47004;51.366;12.348;2023-06-19T09:56:26;9.37;;;5.90;;
18190;SDS011;47004;51.366;12.348;2023-06-19T09:58:29;8.33;;;5.63;;
18190;SDS011;47004;51.366;12.348;2023-06-19T10:00:32;8.00;;;5.80;;
18190;SDS011;47004;51.366;12.348;2023-06-19T10:02:34;7.70;;;5.80;;
18190;SDS011;47004;51.366;12.348;2023-06-19T10:04:43;10.00;;;6.07;;
18190;SDS011;47004;51.366;12.348;2023-06-19T10:06:50;8.30;;;5.60;;
18190;SDS011;47004;51.366;12.348;2023-06-19T10:08:52;6.87;;;5.83;;
18190;SDS011;47004;51.366;12.348;2023-06-19T10:10:54;8.97;;;6.10;;
18190;SDS011;47004;51.366;12.348;2023-06-19T10:12:57;7.83;;;6.10;;
18190;SDS011;47004;51.366;12.348;2023-06-19T10:15:07;8.87;;;6.40;;
18190;SDS011;47004;51.366;12.348;2023-06-19T10:17:10;11.53;;;6.37;;
18190;SDS011;47004;51.366;12.348;2023-06-19T10:19:13;8.67;;;5.90;;
18190;SDS011;47004;51.366;12.348;2023-06-19T10:21:16;8.50;;;5.90;;
18190;SDS011;47004;51.366;12.348;2023-06-19T10:23:20;8.20;;;5.78;;
18190;SDS011;47004;51.366;12.348;2023-06-19T10:25:26;7.95;;;6.40;;
18190;SDS011;47004;51.366;12.348;2023-06-19T10:27:33;10.10;;;6.30;;
18190;SDS011;47004;51.366;12.348;2023-06-19T10:29:38;8.80;;;5.97;;
18190;SDS011;47004;51.366;12.348;2023-06-19T10:31:40;10.68;;;6.20;;
18190;SDS011;47004;51.366;12.348;2023-06-19T10:33:43;9.80;;;6.55;;
18190;SDS011;47004;51.366;12.348;2023-06-19T10:35:44;7.53;;;6.55;;
18190;SDS011;47004;51.366;12.348;2023-06-19T10:37:47;7.93;;;6.22;;
18190;SDS011;47004;51.366;12.348;2023-06-19T10:39:50;8.15;;;6.25;;
18190;SDS011;47004;51.366;12.348;2023-06-19T10:41:52;11.05;;;6.30;;
18190;SDS011;47004;51.366;12.348;2023-06-19T10:43:55;9.55;;;6.63;;
18190;SDS011;47004;51.366;12.348;2023-06-19T10:45:58;7.00;;;5.90;;
18190;SDS011;47004;51.366;12.348;2023-06-19T10:48:04;8.45;;;6.78;;
18190;SDS011;47004;51.366;12.348;2023-06-19T10:50:09;9.35;;;6.57;;
18190;SDS011;47004;51.366;12.348;2023-06-19T10:52:12;8.23;;;6.20;;
18190;SDS011;47004;51.366;12.348;2023-06-19T10:54:16;7.75;;;6.22;;
18190;SDS011;47004;51.366;12.348;2023-06-19T10:56:19;10.43;;;7.00;;
18190;SDS011;47004;51.366;12.348;2023-06-19T10:58:22;7.38;;;6.13;;
18190;SDS011;47004;51.366;12.348;2023-06-19T11:00:25;8.02;;;6.60;;
18190;SDS011;47004;51.366;12.348;2023-06-19T11:02:28;7.93;;;6.30;;
18190;SDS011;47004;51.366;12.348;2023-06-19T11:04:30;8.52;;;6.50;;
18190;SDS011;47004;51.366;12.348;2023-06-19T11:06:38;7.15;;;5.53;;
18190;SDS011;47004;51.366;12.348;2023-06-19T11:08:41;11.85;;;6.93;;
18190;SDS011;47004;51.366;12.348;2023-06-19T11:10:51;7.68;;;6.45;;
18190;SDS011;47004;51.366;12.348;2023-06-19T11:12:55;7.20;;;6.00;;
18190;SDS011;47004;51.366;12.348;2023-06-19T11:14:58;10.27;;;6.30;;
18190;SDS011;47004;51.366;12.348;2023-06-19T11:16:59;9.00;;;6.35;;
18190;SDS011;47004;51.366;12.348;2023-06-19T11:19:02;8.52;;;6.10;;
18190;SDS011;47004;51.366;12.348;2023-06-19T11:21:04;9.45;;;6.32;;
18190;SDS011;47004;51.366;12.348;2023-06-19T11:23:06;8.57;;;6.40;;
18190;SDS011;47004;51.366;12.348;2023-06-19T11:25:09;8.82;;;6.60;;
18190;SDS011;47004;51.366;12.348;2023-06-19T11:27:16;9.40;;;6.47;;
18190;SDS011;47004;51.366;12.348;2023-06-19T11:29:21;7.53;;;5.93;;
18190;SDS011;47004;51.366;12.348;2023-06-19T11:31:25;13.15;;;6.55;;
18190;SDS011;47004;51.366;12.348;2023-06-19T11:33:28;9.05;;;6.45;;
18190;SDS011;47004;51.366;12.348;2023-06-19T11:35:33;8.18;;;6.20;;
18190;SDS011;47004;51.366;12.348;2023-06-19T11:37:36;9.63;;;6.63;;
18190;SDS011;47004;51.366;12.348;2023-06-19T11:39:41;8.75;;;6.35;;
18190;SDS011;47004;51.366;12.348;2023-06-19T11:41:45;7.15;;;6.25;;
18190;SDS011;47004;51.366;12.348;2023-06-19T11:43:47;7.93;;;6.65;;
18190;SDS011;47004;51.366;12.348;2023-06-19T11:45:50;8.52;;;6.25;;
18190;SDS011;47004;51.366;12.348;2023-06-19T11:47:52;10.32;;;6.60;;
18190;SDS011;47004;51.366;12.348;2023-06-19T11:49:55;10.55;;;7.10;;
18190;SDS011;47004;51.366;12.348;2023-06-19T11:51:57;9.50;;;6.22;;
18190;SDS011;47004;51.366;12.348;2023-06-19T11:53:59;8.25;;;6.65;;
18190;SDS011;47004;51.366;12.348;2023-06-19T11:56:00;14.13;;;6.32;;
18190;SDS011;47004;51.366;12.348;2023-06-19T11:58:03;10.50;;;6.47;;
18190;SDS011;47004;51.366;12.348;2023-06-19T12:00:11;10.15;;;6.93;;
18190;SDS011;47004;51.366;12.348;2023-06-19T12:02:16;11.80;;;6.65;;
18190;SDS011;47004;51.366;12.348;2023-06-19T12:04:18;7.97;;;6.82;;
18190;SDS011;47004;51.366;12.348;2023-06-19T12:06:20;9.00;;;6.45;;